Time;durP1;ratioP1;P1;durP2;ratioP2;P2;SDS_P1;SDS_P2;PMS_P1;PMS_P2;Temp;Humidity;BMP_temperature;BMP_pressure;BME280_temperature;BME280_humidity;BME280_pressure;Samples;Min_cycle;Max_cycle;Signal;HPM_P1;HPM_P2
2021/12/21 00:00:21;;;;;;;4.13;1.55;;;27.30;82.00;;;;;;5073500;28;20035;-57
2021/12/21 00:02:52;;;;;;;2.20;1.10;;;27.20;80.00;;;;;;5072457;28;20309;-59
2021/12/21 00:05:21;;;;;;;5.60;1.98;;;27.30;77.50;;;;;;5074134;28;20102;-59
2021/12/21 00:07:51;;;;;;;9.88;2.40;;;27.30;74.90;;;;;;5074332;28;20119;-61
2021/12/21 00:10:20;;;;;;;3.25;1.70;;;27.40;75.60;;;;;;5073437;28;20025;-61
2021/12/21 00:18:28;;;;;;;2.75;1.23;;;27.50;74.30;;;;;;5073951;28;20013;-54
2021/12/21 00:21:03;;;;;;;2.60;1.33;;;27.70;74.40;;;;;;5074186;28;20054;-60
2021/12/21 00:23:37;;;;;;;2.35;1.35;;;27.70;81.60;;;;;;5073904;28;20040;-60
2021/12/21 00:26:17;;;;;;;2.28;1.17;;;27.70;78.30;;;;;;5073889;28;20021;-62
2021/12/21 00:28:57;;;;;;;3.38;1.20;;;27.80;81.30;;;;;;5074055;28;20078;-56
2021/12/21 00:31:29;;;;;;;2.58;1.20;;;27.80;76.60;;;;;;5073714;28;20028;-60
2021/12/21 00:33:57;;;;;;;1.58;0.90;;;27.90;78.80;;;;;;5073583;28;20032;-59
2021/12/21 00:36:28;;;;;;;6.88;1.20;;;27.80;80.20;;;;;;5073842;28;20027;-60
2021/12/21 00:38:58;;;;;;;3.35;1.50;;;27.90;80.10;;;;;;5073555;28;20090;-63
2021/12/21 00:41:26;;;;;;;1.85;0.93;;;27.80;77.40;;;;;;5073482;28;20037;-61
2021/12/21 00:43:54;;;;;;;2.25;1.30;;;27.80;75.00;;;;;;5073258;28;20119;-60
2021/12/21 00:46:21;;;;;;;2.15;1.30;;;27.90;76.30;;;;;;5073042;28;20056;-62
2021/12/21 00:48:51;;;;;;;3.80;1.30;;;28.10;80.20;;;;;;5073457;28;20017;-62
2021/12/21 00:51:21;;;;;;;3.95;0.82;;;28.00;80.50;;;;;;5073159;28;20360;-60
2021/12/21 00:53:52;;;;;;;2.65;1.13;;;28.10;78.60;;;;;;5073155;28;20049;-62
2021/12/21 00:56:20;;;;;;;3.50;1.23;;;28.00;78.40;;;;;;5073242;28;20510;-64
2021/12/21 00:58:47;;;;;;;3.95;1.25;;;28.00;78.80;;;;;;5073391;28;20086;-56
2021/12/21 01:01:15;;;;;;;1.85;1.00;;;28.00;77.10;;;;;;5073088;28;20020;-60
2021/12/21 01:03:47;;;;;;;1.30;0.95;;;28.10;74.10;;;;;;5073066;28;20048;-59
2021/12/21 01:17:18;;;;;;;2.42;1.25;;;28.30;73.70;;;;;;5072265;28;20012;-58
2021/12/21 01:20:02;;;;;;;1.80;1.10;;;28.40;76.30;;;;;;5073245;28;20025;-60
2021/12/21 01:25:46;;;;;;;2.35;1.10;;;28.50;77.80;;;;;;5072776;28;20107;-58
2021/12/21 01:28:01;;;;;;;1.80;0.98;;;28.50;75.20;;;;;;5064434;28;20032;-56
2021/12/21 01:33:35;;;;;;;2.75;1.33;;;28.50;73.80;;;;;;5072742;28;20017;-59
2021/12/21 01:35:51;;;;;;;2.42;1.30;;;28.60;77.10;;;;;;5072484;28;20032;-56
2021/12/21 01:38:33;;;;;;;2.87;0.83;;;28.60;76.90;;;;;;5072617;28;20067;-58
2021/12/21 01:41:18;;;;;;;3.17;1.35;;;28.60;77.60;;;;;;5072724;28;20025;-54
2021/12/21 01:43:57;;;;;;;1.55;1.08;;;28.50;79.30;;;;;;5072392;28;20032;-58
2021/12/21 01:51:55;;;;;;;4.22;1.10;;;28.60;79.20;;;;;;5072267;28;20035;-54
2021/12/21 01:54:22;;;;;;;2.80;1.25;;;28.60;76.80;;;;;;5072270;28;20052;-57
2021/12/21 01:56:50;;;;;;;1.67;0.85;;;28.70;74.00;;;;;;5072272;28;20096;-60
2021/12/21 01:59:17;;;;;;;2.03;1.20;;;28.70;74.20;;;;;;5071162;28;20066;-60
2021/12/21 02:01:45;;;;;;;1.33;0.90;;;28.60;79.20;;;;;;5072307;28;20421;-61
2021/12/21 02:04:17;;;;;;;1.70;1.05;;;28.50;78.80;;;;;;5072272;28;20177;-64
2021/12/21 02:06:46;;;;;;;2.90;1.35;;;28.60;79.70;;;;;;5072657;28;20104;-60
2021/12/21 02:09:13;;;;;;;1.65;1.02;;;28.60;79.00;;;;;;5072652;28;20031;-64
2021/12/21 02:11:40;;;;;;;2.58;0.90;;;28.60;79.40;;;;;;5072573;28;20047;-60
2021/12/21 02:14:10;;;;;;;1.73;0.88;;;28.70;78.20;;;;;;5072157;28;20028;-62
2021/12/21 02:17:07;;;;;;;;;;;;;;;;;;;;;
2021/12/21 02:21:51;;;;;;;1.75;0.90;;;28.60;76.40;;;;;;5073784;28;19908;-62
2021/12/21 02:24:23;;;;;;;2.50;1.15;;;28.70;77.80;;;;;;5075929;28;20498;-61
2021/12/21 02:27:05;;;;;;;1.70;0.85;;;28.70;77.90;;;;;;5076246;28;20372;-59
2021/12/21 02:29:35;;;;;;;2.22;1.00;;;28.80;79.30;;;;;;5075847;28;20032;-55
2021/12/21 02:32:04;;;;;;;2.00;1.00;;;28.80;78.80;;;;;;5074346;28;20129;-55
2021/12/21 02:34:31;;;;;;;3.08;1.00;;;28.80;79.10;;;;;;5075591;28;20024;-58
2021/12/21 02:36:59;;;;;;;2.25;0.90;;;28.80;78.80;;;;;;5075873;28;20024;-57
2021/12/21 02:39:27;;;;;;;1.42;0.90;;;28.80;79.20;;;;;;5076158;28;20119;-63
2021/12/21 02:41:55;;;;;;;1.58;0.90;;;28.80;77.90;;;;;;5075532;28;20021;-58
2021/12/21 02:44:22;;;;;;;2.28;1.00;;;28.80;76.60;;;;;;5075569;28;20556;-59
2021/12/21 02:46:50;;;;;;;2.40;0.90;;;28.90;75.60;;;;;;5075374;28;20028;-58
2021/12/21 02:49:18;;;;;;;1.63;0.98;;;28.90;78.40;;;;;;5075890;28;20039;-62
2021/12/21 02:51:47;;;;;;;2.08;0.90;;;28.90;76.50;;;;;;5075391;28;20052;-59
2021/12/21 02:54:16;;;;;;;4.75;1.42;;;29.00;74.90;;;;;;5075044;28;20080;-61
2021/12/21 02:56:44;;;;;;;2.83;0.90;;;29.10;73.20;;;;;;5075549;28;20111;-59
2021/12/21 02:59:12;;;;;;;1.38;0.90;;;29.10;76.90;;;;;;5075644;28;20036;-60
2021/12/21 03:01:40;;;;;;;2.63;1.13;;;29.20;75.10;;;;;;5073770;28;20021;-59
2021/12/21 03:04:08;;;;;;;1.92;0.90;;;29.10;72.80;;;;;;5075128;28;20036;-58
2021/12/21 03:14:46;;;;;;;2.92;1.00;;;29.20;73.50;;;;;;5059434;28;20041;-59
2021/12/21 03:17:13;;;;;;;2.50;1.15;;;29.20;73.50;;;;;;5075116;28;20027;-62
2021/12/21 03:19:41;;;;;;;2.95;1.17;;;29.30;72.40;;;;;;5075240;28;20514;-57
2021/12/21 03:22:10;;;;;;;3.58;1.08;;;29.20;71.40;;;;;;5074543;28;20056;-57
2021/12/21 03:24:41;;;;;;;5.22;1.77;;;29.30;72.20;;;;;;5074764;28;20458;-59
2021/12/21 03:27:09;;;;;;;2.25;0.90;;;29.30;70.90;;;;;;5073991;28;20055;-57
2021/12/21 03:29:38;;;;;;;1.83;0.90;;;29.30;72.50;;;;;;5075051;28;20039;-61
2021/12/21 03:32:06;;;;;;;2.75;1.40;;;29.40;73.90;;;;;;5073031;28;20352;-57
2021/12/21 03:34:33;;;;;;;1.75;0.77;;;29.20;75.00;;;;;;5075208;28;20062;-60
2021/12/21 03:37:01;;;;;;;3.50;1.13;;;29.20;75.00;;;;;;5074782;28;20024;-62
2021/12/21 03:39:28;;;;;;;1.00;0.85;;;29.20;72.70;;;;;;5075066;28;20033;-61
2021/12/21 03:41:58;;;;;;;1.48;0.88;;;29.20;76.10;;;;;;5074076;28;20021;-61
2021/12/21 03:44:27;;;;;;;2.28;1.10;;;29.30;76.20;;;;;;5074751;28;20466;-62
2021/12/21 03:46:56;;;;;;;3.38;1.15;;;29.20;74.60;;;;;;5074478;28;20386;-63
2021/12/21 03:52:08;;;;;;;1.60;0.93;;;29.20;75.10;;;;;;5074290;28;20047;-61
2021/12/21 03:54:38;;;;;;;2.88;1.00;;;29.30;72.60;;;;;;5074498;28;20524;-55
2021/12/21 03:57:05;;;;;;;1.80;0.88;;;29.20;74.80;;;;;;5074293;28;20032;-60
2021/12/21 03:59:33;;;;;;;2.28;1.00;;;29.30;76.30;;;;;;5074116;28;20024;-56
2021/12/21 04:02:01;;;;;;;1.85;1.08;;;29.20;76.10;;;;;;5074039;28;20166;-58
2021/12/21 04:04:28;;;;;;;1.67;0.98;;;29.20;72.60;;;;;;5074368;28;20025;-57
2021/12/21 04:06:56;;;;;;;2.17;0.98;;;29.20;73.70;;;;;;5073938;28;20035;-60
2021/12/21 04:09:23;;;;;;;2.85;1.02;;;29.20;74.70;;;;;;5073762;28;20028;-56
2021/12/21 04:11:51;;;;;;;3.13;1.02;;;29.20;73.30;;;;;;5074190;28;20025;-59
2021/12/21 04:14:19;;;;;;;1.35;0.70;;;29.10;77.10;;;;;;5074011;28;20028;-58
2021/12/21 04:16:47;;;;;;;1.25;0.80;;;29.10;77.90;;;;;;5073903;28;20021;-61
2021/12/21 04:19:17;;;;;;;1.60;0.80;;;29.10;77.10;;;;;;5074074;28;20021;-60
2021/12/21 04:21:44;;;;;;;1.75;1.10;;;29.10;74.80;;;;;;5074014;28;20029;-60
2021/12/21 04:24:12;;;;;;;2.35;0.80;;;29.00;76.80;;;;;;5073631;28;20036;-56
2021/12/21 04:26:40;;;;;;;3.97;1.02;;;29.00;77.70;;;;;;5073501;28;20024;-61
2021/12/21 04:29:07;;;;;;;1.50;0.80;;;29.00;77.90;;;;;;5073626;28;20483;-58
2021/12/21 04:31:35;;;;;;;2.28;1.00;;;29.00;77.20;;;;;;5073449;28;20036;-58
2021/12/21 04:34:02;;;;;;;1.92;1.05;;;29.10;74.70;;;;;;5072003;28;20513;-59
2021/12/21 04:36:30;;;;;;;5.20;1.10;;;29.00;77.80;;;;;;5073286;28;20455;-58
2021/12/21 04:39:00;;;;;;;3.28;0.88;;;29.10;75.10;;;;;;5073620;28;20525;-52
2021/12/21 04:41:28;;;;;;;1.85;1.10;;;29.10;77.60;;;;;;5074008;28;20506;-61
2021/12/21 04:43:58;;;;;;;0.95;0.70;;;29.10;77.70;;;;;;5072408;28;20066;-61
2021/12/21 04:46:26;;;;;;;4.70;1.10;;;29.00;77.90;;;;;;5073368;28;20048;-60
2021/12/21 04:48:54;;;;;;;1.52;0.90;;;29.00;75.30;;;;;;5073415;28;20024;-61
2021/12/21 04:51:22;;;;;;;1.20;0.70;;;29.00;77.30;;;;;;5073177;28;20025;-62
2021/12/21 04:53:49;;;;;;;2.88;0.88;;;29.00;78.60;;;;;;5073041;28;20067;-60
2021/12/21 04:56:17;;;;;;;2.00;0.90;;;29.00;77.70;;;;;;5073217;28;20024;-61
2021/12/21 04:58:44;;;;;;;2.55;1.15;;;29.00;78.20;;;;;;5072878;28;20024;-61
2021/12/21 05:01:12;;;;;;;2.28;0.88;;;28.90;78.30;;;;;;5072053;28;20035;-60
2021/12/21 05:03:40;;;;;;;1.17;0.90;;;28.90;78.60;;;;;;5071633;28;20431;-58
2021/12/21 05:06:07;;;;;;;1.13;0.80;;;28.90;78.90;;;;;;5070799;28;20086;-67
2021/12/21 05:08:38;;;;;;;1.88;0.98;;;28.80;79.00;;;;;;5072605;28;20037;-62
2021/12/21 05:11:07;;;;;;;1.50;1.00;;;28.80;74.80;;;;;;5071724;28;20103;-60
2021/12/21 05:13:39;;;;;;;2.90;1.30;;;28.90;79.00;;;;;;5072767;28;20142;-60
2021/12/21 05:16:07;;;;;;;1.80;1.17;;;28.90;75.00;;;;;;5072689;28;20021;-60
2021/12/21 05:18:35;;;;;;;1.15;0.80;;;28.90;78.50;;;;;;5072577;28;20474;-58
2021/12/21 05:21:03;;;;;;;4.72;1.40;;;28.90;79.00;;;;;;5072644;28;20036;-61
2021/12/21 05:23:31;;;;;;;1.42;0.90;;;28.90;74.20;;;;;;5072794;28;20036;-59
2021/12/21 05:25:58;;;;;;;1.73;0.80;;;28.90;78.40;;;;;;5072771;28;20063;-56
2021/12/21 05:28:25;;;;;;;1.30;0.90;;;28.90;78.80;;;;;;5073149;28;20040;-58
2021/12/21 05:30:53;;;;;;;2.85;0.80;;;28.90;78.90;;;;;;5072447;28;20028;-58
2021/12/21 05:33:20;;;;;;;3.15;0.90;;;28.90;77.90;;;;;;5072692;28;20533;-61
2021/12/21 05:35:48;;;;;;;1.73;0.93;;;28.90;78.70;;;;;;5072455;28;20152;-58
2021/12/21 05:38:23;;;;;;;1.77;1.10;;;28.80;79.00;;;;;;5072482;28;20494;-61
2021/12/21 05:40:50;;;;;;;3.15;1.10;;;28.80;79.00;;;;;;5072855;28;20052;-58
2021/12/21 05:43:18;;;;;;;4.15;1.00;;;28.70;78.20;;;;;;5072354;28;20056;-57
2021/12/21 05:45:45;;;;;;;1.73;0.90;;;28.80;79.00;;;;;;5072288;28;20103;-60
2021/12/21 05:48:13;;;;;;;2.42;0.82;;;28.70;76.10;;;;;;5072512;28;20036;-64
2021/12/21 05:50:40;;;;;;;6.30;1.13;;;28.80;78.60;;;;;;5072763;28;20035;-59
2021/12/21 05:53:07;;;;;;;2.53;1.02;;;28.70;79.10;;;;;;5072083;28;20040;-63
2021/12/21 05:55:35;;;;;;;2.00;1.10;;;28.70;76.80;;;;;;5072971;28;20029;-59
2021/12/21 05:58:03;;;;;;;2.53;1.00;;;28.70;79.20;;;;;;5076003;28;20530;-58
2021/12/21 06:00:35;;;;;;;3.83;1.20;;;28.60;79.50;;;;;;5076092;28;20025;-60
2021/12/21 06:03:03;;;;;;;3.03;1.10;;;28.60;77.90;;;;;;5076623;28;20119;-60
2021/12/21 06:05:30;;;;;;;2.42;1.08;;;28.60;80.00;;;;;;5075121;28;20435;-54
2021/12/21 06:07:58;;;;;;;1.60;1.00;;;28.60;79.00;;;;;;5076425;28;20028;-62
2021/12/21 06:10:33;;;;;;;2.28;1.10;;;28.50;78.60;;;;;;5076066;28;20111;-59
2021/12/21 06:13:26;;;;;;;2.75;0.95;;;28.60;79.60;;;;;;5076356;28;20070;-53
2021/12/21 06:26:39;;;;;;;2.13;0.85;;;28.50;79.70;;;;;;5075808;28;20132;-60
2021/12/21 06:29:06;;;;;;;1.83;0.88;;;28.50;79.10;;;;;;5074222;28;20036;-59
2021/12/21 06:31:34;;;;;;;3.40;0.90;;;28.40;79.80;;;;;;5075633;28;20032;-56
2021/12/21 06:34:02;;;;;;;1.27;0.70;;;28.40;80.10;;;;;;5075542;28;20013;-64
2021/12/21 06:36:29;;;;;;;2.88;0.80;;;28.30;80.30;;;;;;5075683;28;20020;-53
2021/12/21 06:38:58;;;;;;;1.58;0.73;;;28.30;80.30;;;;;;5075483;28;20024;-55
2021/12/21 06:41:26;;;;;;;3.40;1.27;;;28.30;79.50;;;;;;5075919;28;20437;-58
2021/12/21 06:43:54;;;;;;;1.55;0.80;;;28.30;80.40;;;;;;5074909;28;20056;-59
2021/12/21 06:51:06;;;;;;;2.80;1.30;;;28.30;79.80;;;;;;5075620;28;20467;-58
2021/12/21 06:51:58;;;;;;;1.95;1.00;;;28.20;80.40;;;;;;5074890;28;20047;-61
2021/12/21 06:54:26;;;;;;;4.90;1.58;;;28.20;74.90;;;;;;5075356;28;20131;-58
2021/12/21 06:56:54;;;;;;;1.60;1.23;;;28.30;79.20;;;;;;5075424;28;20079;-61
2021/12/21 06:59:21;;;;;;;3.10;1.48;;;28.20;79.90;;;;;;5075331;28;20032;-57
2021/12/21 07:01:49;;;;;;;3.17;1.02;;;28.20;78.00;;;;;;5073810;28;20066;-58
2021/12/21 07:04:20;;;;;;;1.45;0.70;;;28.20;78.30;;;;;;5075580;28;20040;-56
2021/12/21 07:06:48;;;;;;;1.60;0.77;;;28.20;79.00;;;;;;5074946;28;20032;-61
2021/12/21 07:09:30;;;;;;;2.35;1.08;;;28.20;80.60;;;;;;5075388;28;20032;-60
2021/12/21 07:12:34;;;;;;;2.10;0.80;;;28.10;80.50;;;;;;5074989;28;20028;-58
2021/12/21 07:20:16;;;;;;;3.03;1.20;;;28.00;80.40;;;;;;5075213;28;20063;-56
2021/12/21 07:22:44;;;;;;;2.22;1.10;;;28.00;80.40;;;;;;5075448;28;20129;-61
2021/12/21 07:25:11;;;;;;;4.18;1.52;;;28.00;80.20;;;;;;5075104;28;20078;-59
2021/12/21 07:27:39;;;;;;;2.78;0.90;;;28.00;79.10;;;;;;5075078;28;20061;-62
2021/12/21 07:30:07;;;;;;;1.67;0.77;;;27.90;80.70;;;;;;5074332;28;20439;-56
2021/12/21 07:32:35;;;;;;;3.83;0.90;;;27.90;80.90;;;;;;5074902;28;20382;-59
2021/12/21 07:35:03;;;;;;;2.72;1.27;;;27.90;81.30;;;;;;5074959;28;20078;-60
2021/12/21 07:37:30;;;;;;;2.67;0.90;;;27.90;81.50;;;;;;5075088;28;20471;-63
2021/12/21 07:39:58;;;;;;;1.77;0.85;;;27.80;81.10;;;;;;5073450;28;20483;-54
2021/12/21 07:42:25;;;;;;;1.77;0.90;;;27.80;80.30;;;;;;5073351;28;20051;-52
2021/12/21 07:44:52;;;;;;;2.88;1.00;;;27.70;81.10;;;;;;5074504;28;20108;-60
2021/12/21 07:47:20;;;;;;;3.47;1.30;;;27.70;79.80;;;;;;5074362;28;20532;-60
2021/12/21 07:49:48;;;;;;;2.25;1.15;;;27.70;81.40;;;;;;5074508;28;20043;-59
2021/12/21 07:52:16;;;;;;;1.95;0.85;;;27.60;81.20;;;;;;5074444;28;20363;-60
2021/12/21 07:54:43;;;;;;;1.45;0.90;;;27.60;82.40;;;;;;5073935;28;20124;-60
2021/12/21 07:57:11;;;;;;;1.45;0.70;;;27.60;82.00;;;;;;5074747;28;20020;-58
2021/12/21 07:59:40;;;;;;;1.38;0.60;;;27.50;82.40;;;;;;5074126;28;20166;-60
2021/12/21 08:02:08;;;;;;;3.67;1.20;;;27.60;82.50;;;;;;5073874;28;20020;-57
2021/12/21 08:04:36;;;;;;;1.80;1.05;;;27.60;80.20;;;;;;5073102;28;20031;-58
2021/12/21 08:07:10;;;;;;;2.75;0.90;;;27.50;81.90;;;;;;5074108;28;20035;-56
2021/12/21 08:09:42;;;;;;;2.42;1.10;;;27.50;82.00;;;;;;5074256;28;20174;-58
2021/12/21 08:12:13;;;;;;;1.67;0.85;;;27.50;81.10;;;;;;5074026;28;20021;-60
2021/12/21 08:14:41;;;;;;;2.50;1.17;;;27.50;81.20;;;;;;5074141;28;20476;-62
2021/12/21 08:17:09;;;;;;;2.72;1.10;;;27.50;82.10;;;;;;5072903;28;20116;-57
2021/12/21 08:19:36;;;;;;;3.78;1.08;;;27.40;82.50;;;;;;5072630;28;20024;-58
2021/12/21 08:22:04;;;;;;;1.77;0.90;;;27.40;82.30;;;;;;5073548;28;20044;-57
2021/12/21 08:24:33;;;;;;;1.90;1.05;;;27.40;81.70;;;;;;5074029;28;20098;-64
2021/12/21 08:27:04;;;;;;;3.13;1.20;;;27.40;82.60;;;;;;5072586;28;20379;-62
2021/12/21 08:29:32;;;;;;;2.63;1.17;;;27.30;82.20;;;;;;5073670;28;20025;-61
2021/12/21 08:32:00;;;;;;;2.13;1.08;;;27.30;82.60;;;;;;5073824;28;20042;-58
2021/12/21 08:34:27;;;;;;;2.08;0.90;;;27.30;82.70;;;;;;5074135;28;20386;-63
2021/12/21 08:36:54;;;;;;;3.15;1.02;;;27.30;82.40;;;;;;5073780;28;20024;-61
2021/12/21 08:39:24;;;;;;;2.20;0.98;;;27.30;82.70;;;;;;5074229;28;20348;-60
2021/12/21 08:41:56;;;;;;;2.30;1.05;;;27.30;81.00;;;;;;5074105;28;20374;-63
2021/12/21 08:44:29;;;;;;;2.50;1.30;;;27.20;82.60;;;;;;5073740;28;20120;-63
2021/12/21 08:46:57;;;;;;;4.60;1.42;;;27.20;81.30;;;;;;5072755;28;20024;-62
2021/12/21 08:49:26;;;;;;;3.13;1.17;;;27.20;83.00;;;;;;5073984;28;20024;-64
2021/12/21 08:51:56;;;;;;;3.10;1.60;;;27.20;82.50;;;;;;5073620;28;20356;-62
2021/12/21 08:54:24;;;;;;;2.47;1.40;;;27.20;82.90;;;;;;5073483;28;20055;-63
2021/12/21 08:56:51;;;;;;;3.88;1.58;;;27.20;82.80;;;;;;5073434;28;20028;-61
2021/12/21 08:59:19;;;;;;;2.70;1.08;;;27.10;83.30;;;;;;5073589;28;20383;-63
2021/12/21 09:01:47;;;;;;;2.67;1.35;;;27.10;83.30;;;;;;5073588;28;20025;-62
2021/12/21 09:04:16;;;;;;;3.08;1.17;;;27.00;84.30;;;;;;5072923;28;20036;-57
2021/12/21 09:06:43;;;;;;;3.83;1.52;;;27.10;85.10;;;;;;5073331;28;20021;-60
2021/12/21 09:09:11;;;;;;;4.32;1.30;;;27.00;84.50;;;;;;5073349;28;20024;-60
2021/12/21 09:11:38;;;;;;;2.88;0.80;;;27.00;84.40;;;;;;5073320;28;20024;-59
2021/12/21 09:14:07;;;;;;;2.35;1.00;;;27.00;83.90;;;;;;5072825;28;20025;-64
2021/12/21 09:16:34;;;;;;;3.80;1.20;;;27.00;84.10;;;;;;5072895;28;20032;-61
2021/12/21 09:19:03;;;;;;;5.22;1.63;;;27.00;84.00;;;;;;5073010;28;20095;-63
2021/12/21 09:21:30;;;;;;;2.95;1.20;;;27.00;84.40;;;;;;5073148;28;20536;-60
2021/12/21 09:23:58;;;;;;;3.50;1.42;;;27.00;84.40;;;;;;5072509;28;20040;-55
2021/12/21 09:26:27;;;;;;;2.60;1.40;;;26.90;84.20;;;;;;5072930;28;20352;-63
2021/12/21 09:28:56;;;;;;;3.10;1.00;;;26.90;83.80;;;;;;5071759;28;20032;-67
2021/12/21 09:31:23;;;;;;;5.68;1.58;;;26.90;83.90;;;;;;5072814;28;20479;-62
2021/12/21 09:33:54;;;;;;;2.10;1.02;;;26.90;84.20;;;;;;5073190;28;20119;-59
2021/12/21 09:36:23;;;;;;;2.45;0.98;;;26.90;84.70;;;;;;5072263;28;20025;-63
2021/12/21 09:38:50;;;;;;;6.47;1.60;;;26.90;84.60;;;;;;5073249;28;20157;-62
2021/12/21 09:41:18;;;;;;;1.15;0.80;;;26.90;85.90;;;;;;5071138;28;20103;-62
2021/12/21 09:43:46;;;;;;;3.53;0.85;;;26.90;83.90;;;;;;5072804;28;20033;-57
2021/12/21 09:46:14;;;;;;;3.20;1.25;;;26.80;84.10;;;;;;5072570;28;20025;-60
2021/12/21 09:48:42;;;;;;;3.75;1.10;;;26.90;84.60;;;;;;5072872;28;20020;-61
2021/12/21 09:51:10;;;;;;;5.00;1.48;;;26.90;84.40;;;;;;5073165;28;20021;-59
2021/12/21 09:53:37;;;;;;;4.82;1.40;;;26.80;84.90;;;;;;5072555;28;20044;-61
2021/12/21 09:56:06;;;;;;;3.30;1.15;;;26.90;85.20;;;;;;5072447;28;20086;-61
2021/12/21 09:58:34;;;;;;;3.78;1.60;;;26.80;85.20;;;;;;5072625;28;20031;-60
2021/12/21 10:01:03;;;;;;;4.53;1.42;;;26.80;85.20;;;;;;5072982;28;20406;-64
2021/12/21 10:03:30;;;;;;;3.45;0.98;;;26.80;85.40;;;;;;5072618;28;20039;-64
2021/12/21 10:06:16;;;;;;;3.00;1.00;;;26.80;85.40;;;;;;5070822;28;20082;-61
2021/12/21 10:08:43;;;;;;;3.25;1.15;;;26.80;85.50;;;;;;5072664;28;20020;-62
2021/12/21 10:11:23;;;;;;;3.45;1.35;;;26.70;85.50;;;;;;5072782;28;20024;-62
2021/12/21 10:13:51;;;;;;;2.85;1.13;;;26.70;85.60;;;;;;5072498;28;20028;-62
2021/12/21 10:16:23;;;;;;;5.20;1.55;;;26.80;85.80;;;;;;5072709;28;20025;-58
2021/12/21 10:18:50;;;;;;;2.38;1.17;;;26.70;85.70;;;;;;5072716;28;20558;-64
2021/12/21 10:21:18;;;;;;;3.75;1.48;;;26.70;85.70;;;;;;5072343;28;20078;-63
2021/12/21 10:23:49;;;;;;;6.35;1.17;;;26.70;85.90;;;;;;5072097;28;20043;-64
2021/12/21 10:26:26;;;;;;;3.10;1.40;;;26.70;85.90;;;;;;5071144;28;20016;-60
2021/12/21 10:29:00;;;;;;;3.17;1.42;;;26.70;86.00;;;;;;5072649;28;20024;-60
2021/12/21 10:31:40;;;;;;;3.67;1.50;;;26.70;86.30;;;;;;5072559;28;20524;-63
2021/12/21 10:34:18;;;;;;;4.38;1.40;;;26.60;86.10;;;;;;5072027;28;20398;-62
2021/12/21 10:36:49;;;;;;;3.00;1.33;;;26.70;86.20;;;;;;5072346;28;20046;-62
2021/12/21 10:39:30;;;;;;;2.60;1.20;;;26.60;86.10;;;;;;5072326;28;20024;-56
2021/12/21 10:42:01;;;;;;;2.88;1.33;;;26.60;86.90;;;;;;5072848;28;20064;-62
2021/12/21 10:44:29;;;;;;;3.78;1.35;;;26.60;86.80;;;;;;5075970;28;20029;-59
2021/12/21 10:46:56;;;;;;;4.32;1.55;;;26.60;86.20;;;;;;5076009;28;20035;-59
2021/12/21 10:49:29;;;;;;;4.95;1.35;;;26.60;86.70;;;;;;5075841;28;20386;-62
2021/12/21 10:51:58;;;;;;;3.15;1.60;;;26.60;87.10;;;;;;5075912;28;20469;-59
2021/12/21 10:54:34;;;;;;;2.95;1.27;;;26.60;86.70;;;;;;5075567;28;20040;-61
2021/12/21 10:57:10;;;;;;;5.30;2.08;;;26.60;86.50;;;;;;5075851;28;20031;-62
2021/12/21 10:59:41;;;;;;;6.57;2.00;;;26.60;86.80;;;;;;5075578;28;20033;-63
2021/12/21 11:02:15;;;;;;;6.80;1.83;;;26.60;87.20;;;;;;5075598;28;20036;-61
2021/12/21 11:04:50;;;;;;;5.10;1.50;;;26.60;87.10;;;;;;5075775;28;20495;-62
2021/12/21 11:10:14;;;;;;;4.72;1.65;;;26.60;87.20;;;;;;5075932;28;20443;-60
2021/12/21 11:12:51;;;;;;;5.90;2.10;;;26.60;87.30;;;;;;5075838;28;20029;-62
2021/12/21 11:15:30;;;;;;;2.50;1.00;;;26.50;86.90;;;;;;5075720;28;20029;-63
2021/12/21 11:18:04;;;;;;;3.90;1.23;;;26.50;87.00;;;;;;5074237;28;20474;-61
2021/12/21 11:20:31;;;;;;;5.22;1.65;;;26.50;87.20;;;;;;5074337;28;20025;-60
2021/12/21 11:22:59;;;;;;;3.75;1.40;;;26.40;87.10;;;;;;5075502;28;20032;-60
2021/12/21 11:25:26;;;;;;;4.32;1.60;;;26.50;87.20;;;;;;5075332;28;20059;-61
2021/12/21 11:27:54;;;;;;;4.47;1.50;;;26.50;87.30;;;;;;5075177;28;20017;-57
2021/12/21 11:30:26;;;;;;;5.10;1.35;;;26.40;87.20;;;;;;5075395;28;20020;-53
2021/12/21 11:32:57;;;;;;;4.38;1.38;;;26.40;87.10;;;;;;5075466;28;20475;-54
2021/12/21 11:38:05;;;;;;;5.80;1.45;;;26.40;87.30;;;;;;5074860;28;20024;-61
2021/12/21 11:40:39;;;;;;;6.38;1.58;;;26.40;87.90;;;;;;5075346;28;20028;-56
2021/12/21 11:43:10;;;;;;;4.47;1.88;;;26.30;87.20;;;;;;5075243;28;20036;-58
2021/12/21 11:45:48;;;;;;;3.40;1.42;;;26.30;87.20;;;;;;5075337;28;20048;-56
2021/12/21 11:48:34;;;;;;;2.97;1.15;;;26.30;87.30;;;;;;5074638;28;20060;-59
2021/12/21 11:51:08;;;;;;;4.40;1.50;;;26.30;87.20;;;;;;5075041;28;20020;-62
2021/12/21 11:53:36;;;;;;;4.13;1.45;;;26.30;87.20;;;;;;5073339;28;20079;-59
2021/12/21 11:56:05;;;;;;;3.92;1.40;;;26.30;87.40;;;;;;5074848;28;20063;-58
2021/12/21 11:58:42;;;;;;;4.88;1.52;;;26.20;87.30;;;;;;5074601;28;20162;-56
2021/12/21 12:01:23;;;;;;;7.00;1.88;;;26.30;87.40;;;;;;5074975;28;20028;-58
2021/12/21 12:03:59;;;;;;;6.32;1.95;;;26.20;87.50;;;;;;5074533;28;20033;-60
2021/12/21 12:06:29;;;;;;;3.30;1.42;;;26.20;87.50;;;;;;5073435;28;20082;-59
2021/12/21 12:09:06;;;;;;;3.28;1.15;;;26.20;87.40;;;;;;5074605;28;20040;-58
2021/12/21 12:11:36;;;;;;;2.55;1.08;;;26.20;87.40;;;;;;5074757;28;20539;-58
2021/12/21 12:14:05;;;;;;;5.88;1.52;;;26.20;87.40;;;;;;5074052;28;20039;-55
2021/12/21 12:16:52;;;;;;;3.30;1.40;;;26.20;87.50;;;;;;5074363;28;20120;-57
2021/12/21 12:19:22;;;;;;;4.93;1.85;;;26.20;87.40;;;;;;5073175;28;20383;-60
2021/12/21 12:22:08;;;;;;;2.65;1.00;;;26.10;87.30;;;;;;5074507;28;20032;-61
2021/12/21 12:24:38;;;;;;;4.20;1.35;;;26.10;87.30;;;;;;5074279;28;20393;-61
2021/12/21 12:27:16;;;;;;;2.70;1.38;;;26.10;87.40;;;;;;5074125;28;20119;-60
2021/12/21 12:29:53;;;;;;;5.45;1.38;;;26.10;87.20;;;;;;5074563;28;20028;-59
2021/12/21 12:32:42;;;;;;;4.13;1.90;;;26.00;87.40;;;;;;5074781;28;20028;-60
2021/12/21 12:35:12;;;;;;;3.70;1.77;;;26.00;87.30;;;;;;5074287;28;20378;-58
2021/12/21 12:38:17;;;;;;;4.20;1.23;;;26.00;87.30;;;;;;5074036;28;20029;-60
2021/12/21 12:40:58;;;;;;;4.15;1.33;;;26.00;87.50;;;;;;5053022;28;20434;-61
2021/12/21 12:43:29;;;;;;;4.65;1.35;;;25.90;87.40;;;;;;5073924;28;20438;-63
2021/12/21 12:46:04;;;;;;;3.15;1.40;;;25.90;87.50;;;;;;5074355;28;20025;-61
2021/12/21 12:48:38;;;;;;;2.20;1.20;;;25.90;87.20;;;;;;5074150;28;20029;-65
2021/12/21 12:51:07;;;;;;;3.75;1.55;;;25.90;87.70;;;;;;5074087;28;20119;-66
2021/12/21 12:53:44;;;;;;;3.50;1.20;;;25.90;87.90;;;;;;5073664;28;20125;-61
2021/12/21 12:56:14;;;;;;;2.28;1.00;;;25.90;87.80;;;;;;5073788;28;20029;-62
2021/12/21 12:58:55;;;;;;;4.22;1.40;;;25.80;87.60;;;;;;5073550;28;20380;-61
2021/12/21 13:01:26;;;;;;;2.13;0.98;;;25.80;88.00;;;;;;5072454;28;20021;-61
2021/12/21 13:03:58;;;;;;;4.57;1.60;;;25.80;88.10;;;;;;5072198;28;20067;-62
2021/12/21 13:06:28;;;;;;;2.60;0.98;;;25.80;88.10;;;;;;5073153;28;20020;-63
2021/12/21 13:08:56;;;;;;;4.45;1.67;;;25.80;88.00;;;;;;5072236;28;20056;-60
2021/12/21 13:11:29;;;;;;;2.42;0.85;;;25.80;88.40;;;;;;5073434;28;20056;-60
2021/12/21 13:14:03;;;;;;;2.72;1.10;;;25.70;87.80;;;;;;5071784;28;20426;-57
2021/12/21 13:16:36;;;;;;;2.58;1.05;;;25.70;88.10;;;;;;5073552;28;20056;-60
2021/12/21 13:19:14;;;;;;;3.90;1.45;;;25.70;88.10;;;;;;5073727;28;20059;-61
2021/12/21 13:21:54;;;;;;;4.45;1.38;;;25.70;87.90;;;;;;5073305;28;20025;-58
2021/12/21 13:24:29;;;;;;;3.13;1.50;;;25.60;88.20;;;;;;5073226;28;20032;-61
2021/12/21 13:26:59;;;;;;;4.75;1.48;;;25.70;88.10;;;;;;5071912;28;20396;-56
2021/12/21 13:29:32;;;;;;;3.70;1.67;;;25.60;87.60;;;;;;5073500;28;20028;-60
2021/12/21 13:32:04;;;;;;;3.67;1.23;;;25.60;88.40;;;;;;5073123;28;20031;-59
2021/12/21 13:34:32;;;;;;;5.70;1.55;;;25.60;88.50;;;;;;5073210;28;20027;-61
2021/12/21 13:37:03;;;;;;;3.13;1.35;;;25.50;88.50;;;;;;5073105;28;20493;-59
2021/12/21 13:39:36;;;;;;;3.97;1.87;;;25.50;88.30;;;;;;5073244;28;20031;-61
2021/12/21 13:42:14;;;;;;;2.67;1.30;;;25.50;88.40;;;;;;5072729;28;20483;-60
2021/12/21 13:44:43;;;;;;;2.20;0.90;;;25.50;88.40;;;;;;5073099;28;20053;-61
2021/12/21 13:47:30;;;;;;;3.92;1.67;;;25.50;88.60;;;;;;5071785;28;20024;-60
2021/12/21 13:50:11;;;;;;;4.82;1.55;;;25.50;88.70;;;;;;5072719;28;20032;-61
2021/12/21 13:52:52;;;;;;;3.35;1.35;;;25.50;88.70;;;;;;5072922;28;20056;-61
2021/12/21 13:55:30;;;;;;;4.13;1.35;;;25.50;88.80;;;;;;5072773;28;20036;-59
2021/12/21 13:58:00;;;;;;;4.43;1.35;;;25.40;88.70;;;;;;5072648;28;20032;-61
2021/12/21 14:00:29;;;;;;;3.67;1.20;;;25.40;88.80;;;;;;5072770;28;20101;-61
2021/12/21 14:03:05;;;;;;;3.78;1.40;;;25.40;88.80;;;;;;5072730;28;20078;-60
2021/12/21 14:05:49;;;;;;;5.38;1.63;;;25.40;88.90;;;;;;5071527;28;20158;-60
2021/12/21 14:08:18;;;;;;;3.83;1.40;;;25.40;88.70;;;;;;5072835;28;20044;-62
2021/12/21 14:10:48;;;;;;;5.15;1.95;;;25.40;88.90;;;;;;5073294;28;20025;-60